createdAt,value
2019-01-20T00:02:04.579Z,-4.47
2019-01-20T00:04:35.948Z,-4.57
2019-01-20T00:07:07.086Z,-4.62
2019-01-20T00:09:37.491Z,-4.62
2019-01-20T00:12:07.932Z,-4.66
2019-01-20T00:14:38.607Z,-4.69
2019-01-20T00:17:10.732Z,-4.76
2019-01-20T00:19:41.702Z,-4.85
2019-01-20T00:22:12.123Z,-4.95
2019-01-20T00:24:42.481Z,-5.06
2019-01-20T00:27:13.106Z,-5.10
2019-01-20T00:29:43.857Z,-5.06
2019-01-20T00:32:14.317Z,-4.83
2019-01-20T00:34:44.896Z,-4.80
2019-01-20T00:37:15.257Z,-4.86
2019-01-20T00:39:46.863Z,-4.88
2019-01-20T00:42:17.235Z,-4.88
2019-01-20T00:44:47.876Z,-4.81
2019-01-20T00:47:18.184Z,-4.68
2019-01-20T00:49:48.882Z,-4.66
2019-01-20T00:52:19.226Z,-4.78
2019-01-20T00:54:51.246Z,-4.92
2019-01-20T00:57:22.614Z,-4.82
2019-01-20T00:59:53.232Z,-4.55
2019-01-20T01:02:23.653Z,-4.54
2019-01-20T01:04:55.852Z,-4.57
2019-01-20T01:07:26.220Z,-4.49
2019-01-20T01:09:58.108Z,-4.53
2019-01-20T01:12:28.506Z,-4.45
2019-01-20T01:15:01.083Z,-4.43
2019-01-20T01:17:31.631Z,-4.51
2019-01-20T01:20:03.280Z,-4.61
2019-01-20T01:22:33.647Z,-4.71
2019-01-20T01:25:03.969Z,-4.76
2019-01-20T01:27:34.600Z,-4.82
2019-01-20T01:30:07.855Z,-4.88
2019-01-20T01:32:38.481Z,-4.90
2019-01-20T01:35:09.337Z,-4.95
2019-01-20T01:37:40.135Z,-5.10
2019-01-20T01:40:11.740Z,-5.31
2019-01-20T01:42:42.396Z,-5.46
2019-01-20T01:45:18.164Z,-5.54
2019-01-20T01:47:48.664Z,-5.68
2019-01-20T01:50:19.970Z,-5.76
2019-01-20T01:52:50.320Z,-5.88
2019-01-20T01:55:21.098Z,-5.86
2019-01-20T01:57:51.682Z,-5.95
2019-01-20T02:00:24.714Z,-5.98
2019-01-20T02:02:55.133Z,-5.97
2019-01-20T02:05:25.479Z,-5.71
2019-01-20T02:07:56.352Z,-5.48
2019-01-20T02:10:27.126Z,-5.47
2019-01-20T02:12:58.308Z,-5.40
2019-01-20T02:15:28.887Z,-5.53
2019-01-20T02:18:02.348Z,-5.62
2019-01-20T02:20:33.735Z,-5.67
2019-01-20T02:23:06.229Z,-5.80
2019-01-20T02:25:40.281Z,-5.94
2019-01-20T02:28:12.802Z,-6.02
2019-01-20T02:30:43.074Z,-6.10
2019-01-20T02:33:14.000Z,-6.04
2019-01-20T02:35:44.403Z,-6.10
2019-01-20T02:38:16.466Z,-6.15
2019-01-20T02:40:47.147Z,-6.04
2019-01-20T02:43:22.342Z,-5.91
2019-01-20T02:45:52.664Z,-5.91
2019-01-20T02:48:23.256Z,-5.72
2019-01-20T02:50:53.898Z,-5.70
2019-01-20T02:53:24.267Z,-5.61
2019-01-20T02:55:54.992Z,-5.67
2019-01-20T02:58:25.687Z,-5.69
2019-01-20T03:00:56.150Z,-5.69
2019-01-20T03:03:27.583Z,-5.61
2019-01-20T03:05:58.106Z,-5.50
2019-01-20T03:08:28.432Z,-5.61
2019-01-20T03:10:58.903Z,-5.65
2019-01-20T03:13:29.437Z,-5.62
2019-01-20T03:16:02.307Z,-5.53
2019-01-20T03:18:34.433Z,-5.57
2019-01-20T03:21:05.212Z,-5.60
2019-01-20T03:23:35.585Z,-5.67
2019-01-20T03:26:06.906Z,-5.82
2019-01-20T03:28:37.254Z,-5.98
2019-01-20T03:31:09.251Z,-5.99
2019-01-20T03:33:39.927Z,-5.98
2019-01-20T03:36:12.792Z,-6.00
2019-01-20T03:38:43.333Z,-5.93
2019-01-20T03:41:15.866Z,-5.77
2019-01-20T03:43:46.215Z,-5.65
2019-01-20T03:46:18.187Z,-5.69
2019-01-20T03:48:49.650Z,-5.78
2019-01-20T03:51:20.303Z,-5.87
2019-01-20T03:53:50.792Z,-5.94
2019-01-20T03:56:22.371Z,-6.02
2019-01-20T03:58:52.800Z,-6.07
2019-01-20T04:01:24.485Z,-6.05
2019-01-20T04:03:55.169Z,-6.00
2019-01-20T04:06:25.476Z,-5.98
2019-01-20T04:08:58.791Z,-6.05
2019-01-20T04:11:30.480Z,-6.06
2019-01-20T04:14:03.292Z,-6.10
2019-01-20T04:16:33.703Z,-6.25
2019-01-20T04:19:04.583Z,-6.37
2019-01-20T04:21:34.919Z,-6.49
2019-01-20T04:24:05.302Z,-6.58
2019-01-20T04:26:35.952Z,-6.63
2019-01-20T04:29:06.285Z,-6.54
2019-01-20T04:31:36.624Z,-6.46
2019-01-20T04:34:08.013Z,-6.33
2019-01-20T04:36:38.304Z,-6.24
2019-01-20T04:39:10.099Z,-6.22
2019-01-20T04:41:40.419Z,-6.22
2019-01-20T04:44:11.107Z,-6.24
2019-01-20T04:46:41.588Z,-6.31
2019-01-20T04:49:12.304Z,-6.34
2019-01-20T04:51:42.598Z,-6.34
2019-01-20T04:54:14.980Z,-6.40
2019-01-20T04:56:47.235Z,-6.47
2019-01-20T04:59:18.886Z,-6.52
2019-01-20T05:01:49.220Z,-6.58
2019-01-20T05:04:20.880Z,-6.56
2019-01-20T05:06:51.383Z,-6.49
2019-01-20T05:09:26.259Z,-6.50
2019-01-20T05:11:56.816Z,-6.48
2019-01-20T05:14:27.170Z,-6.47
2019-01-20T05:17:00.158Z,-6.35
2019-01-20T05:19:30.508Z,-6.15
2019-01-20T05:22:01.203Z,-5.93
2019-01-20T05:24:31.598Z,-5.93
2019-01-20T05:27:03.140Z,-5.91
2019-01-20T05:29:34.903Z,-6.03
2019-01-20T05:32:05.190Z,-6.06
2019-01-20T05:34:37.139Z,-6.03
2019-01-20T05:37:08.161Z,-6.16
2019-01-20T05:39:38.619Z,-6.24
2019-01-20T05:42:09.426Z,-6.23
2019-01-20T05:44:39.770Z,-6.28
2019-01-20T05:47:10.398Z,-6.21
2019-01-20T05:49:40.840Z,-6.21
2019-01-20T05:52:13.694Z,-6.22
2019-01-20T05:54:46.535Z,-6.25
2019-01-20T05:57:18.301Z,-6.34
2019-01-20T05:59:48.638Z,-6.40
2019-01-20T06:02:19.434Z,-6.34
2019-01-20T06:04:49.874Z,-6.36
2019-01-20T06:07:22.854Z,-6.26
2019-01-20T06:09:53.366Z,-6.27
2019-01-20T06:12:24.368Z,-6.43
2019-01-20T06:14:54.816Z,-6.58
2019-01-20T06:17:25.158Z,-6.65
2019-01-20T06:19:55.726Z,-6.73
2019-01-20T06:22:26.361Z,-6.81
2019-01-20T06:24:58.078Z,-6.82
2019-01-20T06:27:28.404Z,-6.90
2019-01-20T06:29:58.738Z,-6.89
2019-01-20T06:32:29.083Z,-6.80
2019-01-20T06:34:59.729Z,-6.82
2019-01-20T06:37:30.025Z,-6.82
2019-01-20T06:40:00.495Z,-6.80
2019-01-20T06:42:32.243Z,-6.69
2019-01-20T06:45:03.921Z,-6.52
2019-01-20T06:47:34.320Z,-6.42
2019-01-20T06:50:07.227Z,-6.27
2019-01-20T06:52:39.040Z,-6.22
2019-01-20T06:55:11.499Z,-6.24
2019-01-20T06:57:42.152Z,-6.52
2019-01-20T07:00:19.943Z,-6.69
2019-01-20T07:02:50.331Z,-6.86
2019-01-20T07:05:21.165Z,-6.96
2019-01-20T07:07:53.404Z,-6.96
2019-01-20T07:10:23.837Z,-7.06
2019-01-20T07:12:54.314Z,-7.15
2019-01-20T07:15:27.260Z,-7.18
2019-01-20T07:17:57.679Z,-7.26
2019-01-20T07:20:28.987Z,-7.30
2019-01-20T07:23:02.287Z,-7.26
2019-01-20T07:25:33.919Z,-7.17
2019-01-20T07:28:04.720Z,-7.12
2019-01-20T07:30:38.080Z,-7.16
2019-01-20T07:33:08.830Z,-7.20
2019-01-20T07:35:40.743Z,-7.25
2019-01-20T07:38:11.365Z,-7.28
2019-01-20T07:40:43.053Z,-7.24
2019-01-20T07:43:16.930Z,-7.22
2019-01-20T07:45:47.519Z,-7.20
2019-01-20T07:48:17.791Z,-7.15
2019-01-20T07:50:48.550Z,-7.05
2019-01-20T07:53:19.737Z,-6.96
2019-01-20T07:55:51.047Z,-6.86
2019-01-20T07:58:21.493Z,-6.73
2019-01-20T08:00:53.489Z,-6.68
2019-01-20T08:03:25.673Z,-6.61
2019-01-20T08:05:56.270Z,-6.63
2019-01-20T08:08:26.674Z,-6.65
2019-01-20T08:10:58.933Z,-6.67
2019-01-20T08:13:29.597Z,-6.66
2019-01-20T08:16:00.082Z,-6.63
2019-01-20T08:18:30.980Z,-6.58
2019-01-20T08:21:01.393Z,-6.51
2019-01-20T08:23:32.737Z,-6.51
2019-01-20T08:26:04.767Z,-6.44
2019-01-20T08:28:36.034Z,-6.40
2019-01-20T08:31:07.182Z,-6.31
2019-01-20T08:33:39.453Z,-6.21
2019-01-20T08:36:10.897Z,-6.21
2019-01-20T08:38:42.763Z,-6.09
2019-01-20T08:41:14.095Z,-6.00
2019-01-20T08:43:47.812Z,-5.88
2019-01-20T08:46:49.797Z,-5.81
2019-01-20T08:49:23.251Z,-5.74
2019-01-20T08:51:57.628Z,-5.61
2019-01-20T08:54:28.563Z,-5.46
2019-01-20T08:57:04.965Z,-5.32
2019-01-20T08:59:37.528Z,-5.11
2019-01-20T09:02:10.180Z,-2.75
2019-01-20T09:04:42.431Z,1.78
2019-01-20T09:07:16.256Z,4.04
2019-01-20T09:09:47.394Z,6.27
2019-01-20T09:12:19.894Z,7.51
2019-01-20T09:14:55.067Z,6.27
2019-01-20T09:17:25.436Z,4.81
2019-01-20T09:19:55.791Z,4.18
2019-01-20T09:22:28.544Z,3.60
2019-01-20T09:24:59.034Z,3.62
2019-01-20T09:27:29.422Z,3.69
2019-01-20T09:29:59.875Z,2.88
2019-01-20T09:32:30.527Z,2.17
2019-01-20T09:35:02.192Z,2.13
2019-01-20T09:37:32.695Z,1.40
2019-01-20T09:40:04.359Z,1.47
2019-01-20T09:42:34.767Z,2.08
2019-01-20T09:45:06.163Z,3.45
2019-01-20T09:47:36.583Z,5.41
2019-01-20T09:50:07.740Z,5.23
2019-01-20T09:52:39.447Z,4.38
2019-01-20T09:55:10.756Z,4.89
2019-01-20T09:57:41.359Z,4.96
2019-01-20T10:00:17.322Z,5.35
2019-01-20T10:02:47.660Z,6.10
2019-01-20T10:05:18.308Z,7.64
2019-01-20T10:07:49.098Z,11.71
2019-01-20T10:10:19.478Z,14.50
2019-01-20T10:12:50.962Z,15.85
2019-01-20T10:15:21.352Z,16.31
2019-01-20T10:17:51.749Z,12.14
2019-01-20T10:20:25.063Z,7.82
2019-01-20T10:22:55.663Z,4.90
2019-01-20T10:25:26.387Z,2.80
2019-01-20T10:27:57.851Z,1.70
2019-01-20T10:30:30.853Z,1.18
2019-01-20T10:33:01.288Z,0.74
2019-01-20T10:35:38.690Z,0.50
2019-01-20T10:38:10.560Z,0.22
2019-01-20T10:40:42.327Z,0.10
2019-01-20T10:43:12.680Z,0.02
2019-01-20T10:45:43.379Z,-0.08
2019-01-20T10:48:13.805Z,-0.16
2019-01-20T10:50:45.972Z,-0.20
2019-01-20T10:53:18.734Z,-0.23
2019-01-20T10:55:49.792Z,-0.23
2019-01-20T10:58:20.474Z,-0.24
2019-01-20T11:00:51.023Z,-0.27
2019-01-20T11:03:23.601Z,-0.27
2019-01-20T11:05:54.757Z,-0.24
2019-01-20T11:08:25.223Z,-0.24
2019-01-20T11:10:56.175Z,-0.21
2019-01-20T11:13:26.722Z,-0.18
2019-01-20T11:15:57.277Z,-0.13
2019-01-20T11:18:27.581Z,-0.07
2019-01-20T11:20:58.072Z,-0.04
2019-01-20T11:23:31.160Z,-0.01
2019-01-20T11:26:03.132Z,0.00
2019-01-20T11:28:33.850Z,0.04
2019-01-20T11:31:04.247Z,0.07
2019-01-20T11:33:34.614Z,0.13
2019-01-20T11:36:05.023Z,0.18
2019-01-20T11:38:36.096Z,0.26
2019-01-20T11:41:06.421Z,0.31
2019-01-20T11:43:36.914Z,0.31
2019-01-20T11:46:07.234Z,0.32
2019-01-20T11:48:37.597Z,0.34
2019-01-20T11:51:08.056Z,0.30
2019-01-20T11:53:38.786Z,0.37
2019-01-20T11:56:10.534Z,0.42
2019-01-20T11:58:42.094Z,0.45
2019-01-20T12:01:12.879Z,0.51
2019-01-20T12:03:44.916Z,0.56
2019-01-20T12:06:15.211Z,0.62
2019-01-20T12:08:45.893Z,0.66
2019-01-20T12:11:16.493Z,0.69
2019-01-20T12:13:49.065Z,0.74
2019-01-20T12:16:19.469Z,0.81
2019-01-20T12:18:50.516Z,0.87
2019-01-20T12:21:22.802Z,0.91
2019-01-20T12:23:57.002Z,0.97
2019-01-20T12:26:28.805Z,1.02
2019-01-20T12:29:02.056Z,1.06
2019-01-20T12:31:36.469Z,1.09
2019-01-20T12:34:06.957Z,1.10
2019-01-20T12:36:37.332Z,1.15
2019-01-20T12:39:09.248Z,1.25
2019-01-20T12:41:39.600Z,1.25
2019-01-20T12:44:12.103Z,1.26
2019-01-20T12:46:49.811Z,1.27
2019-01-20T12:49:20.362Z,1.29
2019-01-20T12:51:50.794Z,1.36
2019-01-20T12:54:22.808Z,1.41
2019-01-20T12:56:56.948Z,1.42
2019-01-20T12:59:29.288Z,1.42
2019-01-20T13:02:01.888Z,1.42
2019-01-20T13:04:32.608Z,1.46
2019-01-20T13:07:03.406Z,1.47
2019-01-20T13:09:34.102Z,1.49
2019-01-20T13:12:04.696Z,1.50
2019-01-20T13:14:39.241Z,1.52
2019-01-20T13:17:07.851Z,1.51
2019-01-20T13:19:38.455Z,1.51
2019-01-20T13:22:09.016Z,1.54
2019-01-20T13:24:42.966Z,1.56
2019-01-20T13:27:20.516Z,1.57
2019-01-20T13:29:53.811Z,1.58
2019-01-20T13:32:29.346Z,1.64
2019-01-20T13:35:03.351Z,1.66
2019-01-20T13:37:34.040Z,1.68
2019-01-20T13:40:06.293Z,1.70
2019-01-20T13:42:36.688Z,1.72
2019-01-20T13:45:08.379Z,1.74
2019-01-20T13:47:40.004Z,1.78
2019-01-20T13:50:14.569Z,1.74
2019-01-20T13:52:45.511Z,1.76
2019-01-20T13:55:16.744Z,1.77
2019-01-20T13:57:47.418Z,1.77
2019-01-20T14:00:21.753Z,1.74
2019-01-20T14:02:52.495Z,1.76
2019-01-20T14:05:26.009Z,1.76
2019-01-20T14:08:02.285Z,1.83
2019-01-20T14:10:33.485Z,1.83
2019-01-20T14:13:03.927Z,1.86
2019-01-20T14:15:36.676Z,1.82
2019-01-20T14:18:07.095Z,1.81
2019-01-20T14:20:37.919Z,1.78
2019-01-20T14:23:08.555Z,1.77
2019-01-20T14:25:40.440Z,1.72
2019-01-20T14:28:11.047Z,1.72
2019-01-20T14:30:42.375Z,1.70
2019-01-20T14:33:13.102Z,1.73
2019-01-20T14:35:43.573Z,1.71
2019-01-20T14:38:16.407Z,1.72
2019-01-20T14:40:46.799Z,1.72
2019-01-20T14:43:18.480Z,1.65
2019-01-20T14:45:48.809Z,1.64
2019-01-20T14:48:19.595Z,1.61
2019-01-20T14:50:50.010Z,1.48
2019-01-20T14:53:20.642Z,1.47
2019-01-20T14:55:51.031Z,1.44
2019-01-20T14:58:22.133Z,1.46
2019-01-20T15:00:58.589Z,1.49
2019-01-20T15:03:35.135Z,1.51
2019-01-20T15:06:07.473Z,1.44
2019-01-20T15:08:37.959Z,1.22
2019-01-20T15:11:08.708Z,1.04
2019-01-20T15:13:41.403Z,1.01
2019-01-20T15:16:11.747Z,0.96
2019-01-20T15:18:52.437Z,0.82
2019-01-20T15:21:23.236Z,0.68
2019-01-20T15:23:58.334Z,0.64
2019-01-20T15:26:29.132Z,0.48
2019-01-20T15:29:00.309Z,0.51
2019-01-20T15:31:32.320Z,0.52
2019-01-20T15:34:03.154Z,0.37
2019-01-20T15:36:35.674Z,0.23
2019-01-20T15:39:09.091Z,0.16
2019-01-20T15:41:44.962Z,0.13
2019-01-20T15:44:21.478Z,0.19
2019-01-20T15:46:56.017Z,0.19
2019-01-20T15:49:30.988Z,0.09
2019-01-20T15:52:03.004Z,0.03
2019-01-20T15:54:33.414Z,-0.16
2019-01-20T15:57:04.084Z,-0.35
2019-01-20T15:59:36.037Z,-0.44
2019-01-20T16:02:08.750Z,-0.46
2019-01-20T16:04:39.211Z,-0.45
2019-01-20T16:07:11.026Z,-0.48
2019-01-20T16:09:43.017Z,-0.52
2019-01-20T16:12:16.800Z,-0.55
2019-01-20T16:14:48.794Z,-0.57
2019-01-20T16:17:20.708Z,-0.71
2019-01-20T16:19:57.423Z,-0.71
2019-01-20T16:22:29.528Z,-0.72
2019-01-20T16:25:00.391Z,-0.74
2019-01-20T16:27:32.378Z,-0.93
2019-01-20T16:30:02.781Z,-1.03
2019-01-20T16:32:35.038Z,-1.26
2019-01-20T16:35:05.932Z,-1.26
2019-01-20T16:37:37.682Z,-1.18
2019-01-20T16:40:10.224Z,-1.09
2019-01-20T16:42:41.059Z,-1.00
2019-01-20T16:45:14.936Z,-0.99
2019-01-20T16:47:47.683Z,-1.03
2019-01-20T16:50:20.491Z,-1.11
2019-01-20T16:52:54.719Z,-1.13
2019-01-20T16:55:23.288Z,-1.24
2019-01-20T16:57:54.166Z,-1.28
2019-01-20T17:00:29.884Z,-1.28
2019-01-20T17:03:01.354Z,-1.29
2019-01-20T17:05:31.858Z,-1.36
2019-01-20T17:08:05.488Z,-1.44
2019-01-20T17:10:38.666Z,-1.48
2019-01-20T17:13:10.459Z,-1.50
2019-01-20T17:15:47.973Z,-1.59
2019-01-20T17:18:19.437Z,-1.62
2019-01-20T17:20:49.961Z,-1.75
2019-01-20T17:23:23.171Z,-1.80
2019-01-20T17:25:53.553Z,-1.91
2019-01-20T17:28:26.387Z,-1.94
2019-01-20T17:30:56.833Z,-2.05
2019-01-20T17:33:27.886Z,-2.00
2019-01-20T17:36:01.230Z,-2.00
2019-01-20T17:38:33.789Z,-1.96
2019-01-20T17:41:04.139Z,-2.05
2019-01-20T17:43:36.986Z,-2.35
2019-01-20T17:46:07.533Z,-2.35
2019-01-20T17:48:42.857Z,-2.45
2019-01-20T17:51:13.281Z,-2.44
2019-01-20T17:53:45.859Z,-2.27
2019-01-20T17:56:16.553Z,-2.16
2019-01-20T17:58:47.219Z,-1.84
2019-01-20T18:01:17.956Z,-1.84
2019-01-20T18:03:48.925Z,-1.77
2019-01-20T18:06:19.388Z,-1.87
2019-01-20T18:08:50.839Z,-1.84
2019-01-20T18:11:21.265Z,-1.96
2019-01-20T18:13:51.551Z,-1.83
2019-01-20T18:16:23.484Z,-1.65
2019-01-20T18:18:54.182Z,-1.65
2019-01-20T18:21:24.913Z,-1.66
2019-01-20T18:24:06.595Z,-1.56
2019-01-20T18:26:36.957Z,-1.54
2019-01-20T18:29:08.374Z,-1.57
2019-01-20T18:31:38.826Z,-1.52
2019-01-20T18:34:09.266Z,-1.73
2019-01-20T18:36:39.866Z,-1.96
2019-01-20T18:39:10.462Z,-2.07
2019-01-20T18:41:41.089Z,-2.02
2019-01-20T18:44:11.567Z,-2.03
2019-01-20T18:46:42.188Z,-2.04
2019-01-20T18:49:12.671Z,-1.97
2019-01-20T18:51:43.342Z,-2.02
2019-01-20T18:54:13.809Z,-2.13
2019-01-20T18:56:44.575Z,-2.07
2019-01-20T18:59:15.053Z,-2.39
2019-01-20T19:01:45.916Z,-2.39
2019-01-20T19:04:16.327Z,-2.54
2019-01-20T19:06:48.223Z,-2.80
2019-01-20T19:09:19.573Z,-2.96
2019-01-20T19:11:50.826Z,-2.87
2019-01-20T19:14:21.225Z,-2.68
2019-01-20T19:16:51.571Z,-2.80
2019-01-20T19:19:22.257Z,-3.18
2019-01-20T19:21:54.646Z,-3.18
2019-01-20T19:24:25.120Z,-3.20
2019-01-20T19:26:56.546Z,-3.22
2019-01-20T19:29:27.157Z,-3.25
2019-01-20T19:31:57.662Z,-3.24
2019-01-20T19:34:29.004Z,-3.23
2019-01-20T19:36:59.308Z,-3.32
2019-01-20T19:39:29.715Z,-3.44
2019-01-20T19:42:00.401Z,-3.52
2019-01-20T19:44:31.321Z,-3.54
2019-01-20T19:47:01.915Z,-3.48
2019-01-20T19:49:33.006Z,-3.43
2019-01-20T19:52:03.424Z,-3.44
2019-01-20T19:54:35.473Z,-3.54
2019-01-20T19:57:05.943Z,-3.61
2019-01-20T19:59:36.993Z,-3.68
2019-01-20T20:02:09.203Z,-3.75
2019-01-20T20:04:41.983Z,-3.78
2019-01-20T20:07:15.286Z,-3.87
2019-01-20T20:09:48.463Z,-3.93
2019-01-20T20:12:18.955Z,-3.90
2019-01-20T20:14:50.539Z,-3.87
2019-01-20T20:17:23.214Z,-3.82
2019-01-20T20:19:54.724Z,-3.68
2019-01-20T20:25:04.005Z,-3.75
2019-01-20T20:27:34.518Z,-3.74
2019-01-20T20:30:08.708Z,-3.82
2019-01-20T20:32:39.141Z,-3.85
2019-01-20T20:35:11.720Z,-3.91
2019-01-20T20:37:42.589Z,-3.91
2019-01-20T20:40:15.662Z,-3.84
2019-01-20T20:42:46.019Z,-3.66
2019-01-20T20:45:22.726Z,-3.62
2019-01-20T20:47:53.363Z,-3.55
2019-01-20T20:50:23.730Z,-3.63
2019-01-20T20:52:54.446Z,-3.88
2019-01-20T20:55:25.034Z,-4.16
2019-01-20T20:57:57.663Z,-4.41
2019-01-20T21:00:51.316Z,-4.41
2019-01-20T21:03:27.765Z,-4.48
2019-01-20T21:05:58.476Z,-4.36
2019-01-20T21:08:30.042Z,-4.44
2019-01-20T21:11:00.600Z,-4.59
2019-01-20T21:13:31.015Z,-4.69
2019-01-20T21:16:01.499Z,-4.74
2019-01-20T21:18:32.256Z,-4.80
2019-01-20T21:21:02.652Z,-4.86
2019-01-20T21:23:33.227Z,-4.82
2019-01-20T21:26:10.118Z,-4.77
2019-01-20T21:28:40.506Z,-4.84
2019-01-20T21:31:12.518Z,-4.91
2019-01-20T21:33:43.003Z,-4.84
2019-01-20T21:36:13.453Z,-4.68
2019-01-20T21:38:44.331Z,-4.65
2019-01-20T21:41:15.479Z,-4.77
2019-01-20T21:43:46.300Z,-4.88
2019-01-20T21:46:17.113Z,-4.98
2019-01-20T21:48:47.535Z,-4.93
2019-01-20T21:51:18.110Z,-4.74
2019-01-20T21:53:48.528Z,-4.62
2019-01-20T21:56:19.954Z,-4.55
2019-01-20T21:58:50.676Z,-4.54
2019-01-20T22:01:21.529Z,-4.73
2019-01-20T22:03:52.117Z,-4.84
2019-01-20T22:06:22.935Z,-4.81
2019-01-20T22:08:53.560Z,-4.86
2019-01-20T22:11:24.303Z,-4.95
2019-01-20T22:13:55.003Z,-5.22
2019-01-20T22:16:25.324Z,-5.22
2019-01-20T22:18:58.031Z,-5.29
2019-01-20T22:21:28.318Z,-5.38
2019-01-20T22:24:00.344Z,-5.42
2019-01-20T22:26:31.823Z,-5.32
2019-01-20T22:29:02.402Z,-5.27
2019-01-20T22:31:34.653Z,-5.33
2019-01-20T22:34:07.019Z,-5.39
2019-01-20T22:36:37.576Z,-5.39
2019-01-20T22:39:09.698Z,-5.46
2019-01-20T22:41:40.104Z,-5.57
2019-01-20T22:44:13.304Z,-5.61
2019-01-20T22:46:43.647Z,-5.65
2019-01-20T22:49:16.696Z,-5.68
2019-01-20T22:51:48.106Z,-5.66
2019-01-20T22:54:20.592Z,-5.71
2019-01-20T22:56:50.876Z,-5.75
2019-01-20T22:59:23.282Z,-5.75
2019-01-20T23:01:53.848Z,-5.74
2019-01-20T23:04:25.462Z,-5.76
2019-01-20T23:06:56.046Z,-5.80
2019-01-20T23:09:26.618Z,-5.80
2019-01-20T23:11:58.762Z,-5.82
2019-01-20T23:14:29.219Z,-5.86
2019-01-20T23:16:59.981Z,-5.87
2019-01-20T23:19:34.391Z,-5.88
2019-01-20T23:22:04.728Z,-5.88
2019-01-20T23:24:35.042Z,-5.87
2019-01-20T23:27:06.101Z,-5.86
2019-01-20T23:29:36.758Z,-5.87
2019-01-20T23:32:07.130Z,-5.90
2019-01-20T23:34:37.691Z,-5.92
2019-01-20T23:37:08.344Z,-5.96
2019-01-20T23:39:38.685Z,-5.99
2019-01-20T23:42:09.324Z,-6.02
2019-01-20T23:44:40.063Z,-6.05
2019-01-20T23:47:15.276Z,-6.11
2019-01-20T23:49:46.223Z,-6.21
2019-01-20T23:52:17.175Z,-6.16
2019-01-20T23:54:47.465Z,-6.16
2019-01-20T23:57:18.244Z,-6.22
2019-01-20T23:59:48.635Z,-6.20
